createdAt,value
2023-04-26T04:55:14.373Z,7.97
2023-04-26T05:00:18.813Z,5.93
2023-04-26T05:05:22.154Z,4.57
2023-04-26T05:10:27.184Z,8.45
2023-04-26T05:15:31.050Z,6.53
2023-04-26T05:20:34.706Z,8.63
2023-04-26T05:25:40.393Z,6.07
2023-04-26T05:30:44.527Z,8.00
2023-04-26T05:35:47.987Z,7.60
2023-04-26T05:40:52.757Z,11.77
2023-04-26T05:45:58.172Z,5.20
2023-04-26T05:51:01.698Z,7.13
2023-04-26T05:56:07.440Z,12.65
2023-04-26T06:01:12.391Z,8.02
2023-04-26T06:06:16.469Z,9.43
2023-04-26T06:11:21.520Z,7.03
2023-04-26T06:16:25.283Z,15.02
2023-04-26T06:21:28.807Z,9.15
2023-04-26T06:26:33.646Z,6.72
2023-04-26T06:31:37.299Z,11.88
2023-04-26T06:36:41.371Z,10.82
2023-04-26T06:41:46.631Z,7.50
2023-04-26T06:46:50.602Z,7.07
2023-04-26T06:51:54.412Z,10.63
2023-04-26T06:57:01.225Z,12.20
2023-04-26T07:02:05.392Z,6.65
2023-04-26T07:07:10.463Z,13.60
2023-04-26T07:12:16.560Z,5.05
2023-04-26T07:17:21.380Z,8.00
2023-04-26T07:22:25.350Z,12.27
2023-04-26T07:27:32.044Z,8.07
2023-04-26T07:32:36.506Z,5.93
2023-04-26T07:37:40.404Z,10.27
2023-04-26T07:42:45.342Z,9.38
2023-04-26T07:47:48.888Z,11.38
2023-04-26T07:52:52.642Z,6.15
2023-04-26T07:57:57.710Z,10.70
2023-04-26T08:03:03.592Z,9.95
2023-04-26T08:08:07.383Z,7.05
2023-04-26T08:13:12.178Z,8.18
2023-04-26T08:18:15.612Z,5.78
2023-04-26T08:23:19.657Z,7.03
2023-04-26T08:28:24.438Z,3.83
2023-04-26T08:33:27.897Z,8.10
2023-04-26T08:38:32.360Z,3.17
2023-04-26T08:43:38.753Z,13.00
2023-04-26T08:48:42.215Z,7.78
2023-04-26T08:53:46.534Z,4.03
2023-04-26T08:58:52.053Z,5.18
2023-04-26T09:03:57.252Z,3.50
2023-04-26T09:09:04.945Z,4.70
2023-04-26T09:14:09.795Z,12.10
2023-04-26T09:19:13.248Z,5.72
2023-04-26T09:24:17.156Z,6.82
2023-04-26T09:29:22.083Z,10.25
2023-04-26T09:34:25.521Z,4.13
2023-04-26T09:39:33.896Z,3.83
2023-04-26T09:44:39.258Z,4.53
2023-04-26T09:49:48.819Z,4.63
2023-04-26T09:54:54.584Z,4.18
2023-04-26T10:00:00.927Z,3.65
2023-04-26T10:05:07.245Z,4.28
2023-04-26T10:10:12.877Z,4.40
2023-04-26T10:15:19.249Z,6.57
2023-04-26T10:20:24.352Z,3.40
2023-04-26T10:25:36.627Z,7.78
2023-04-26T10:30:56.644Z,4.80
2023-04-26T10:36:09.957Z,6.13
2023-04-26T10:41:33.207Z,7.22
2023-04-26T10:46:40.594Z,3.35
2023-04-26T10:52:12.626Z,4.93
2023-04-26T10:57:16.982Z,6.93
2023-04-26T11:02:58.248Z,3.33
2023-04-26T11:08:09.452Z,4.18
2023-04-26T11:13:13.530Z,2.85
2023-04-26T11:18:21.077Z,4.55
2023-04-26T11:23:25.520Z,7.28
2023-04-26T11:28:29.053Z,3.45
2023-04-26T11:33:34.254Z,3.50
2023-04-26T11:38:39.439Z,6.78
2023-04-26T11:43:43.135Z,4.05
2023-04-26T11:48:48.557Z,1.88
2023-04-26T11:53:52.800Z,3.10
2023-04-26T11:58:58.430Z,3.10
2023-04-26T12:04:03.402Z,4.47
2023-04-26T12:09:08.261Z,4.60
2023-04-26T12:14:11.958Z,5.65
2023-04-26T12:19:17.279Z,2.95
2023-04-26T12:24:24.838Z,3.88
2023-04-26T12:29:30.606Z,3.33
2023-04-26T12:34:35.827Z,3.05
2023-04-26T12:39:39.230Z,2.42
2023-04-26T12:44:42.695Z,4.60
2023-04-26T12:49:48.122Z,3.17
2023-04-26T12:54:51.906Z,3.95
2023-04-26T12:59:57.185Z,5.43
2023-04-26T13:05:04.780Z,5.00
2023-04-26T13:10:12.842Z,10.13
2023-04-26T13:15:17.798Z,5.97
2023-04-26T13:20:25.489Z,7.70
2023-04-26T13:25:29.691Z,5.97
2023-04-26T13:30:33.163Z,4.85
2023-04-26T13:35:38.197Z,3.40
2023-04-26T13:40:41.857Z,5.55
2023-04-26T13:45:45.247Z,4.18
2023-04-26T13:50:50.016Z,4.75
2023-04-26T13:55:53.515Z,3.15
2023-04-26T14:00:58.544Z,2.13
2023-04-26T14:06:03.937Z,3.17
2023-04-26T14:11:07.966Z,4.72
2023-04-26T14:16:11.727Z,1.92
2023-04-26T14:21:16.870Z,1.65
2023-04-26T14:26:20.491Z,3.88
2023-04-26T14:31:26.084Z,1.83
2023-04-26T14:36:32.137Z,2.78
2023-04-26T14:41:35.506Z,2.45
2023-04-26T14:46:42.455Z,2.33
2023-04-26T14:51:48.027Z,4.47
2023-04-26T14:56:51.943Z,4.20
2023-04-26T15:01:55.710Z,2.42
2023-04-26T15:07:00.888Z,3.50
2023-04-26T15:12:04.999Z,3.08
2023-04-26T15:17:08.672Z,5.88
2023-04-26T15:22:13.507Z,3.17
2023-04-26T15:27:17.544Z,6.85
2023-04-26T15:32:20.979Z,2.47
2023-04-26T15:37:25.754Z,4.75
2023-04-26T15:42:29.180Z,4.53
2023-04-26T15:47:32.685Z,2.35
2023-04-26T15:52:39.419Z,3.63
2023-04-26T15:57:43.539Z,1.52
2023-04-26T16:02:47.333Z,4.10
2023-04-26T16:07:52.286Z,4.97
2023-04-26T16:12:55.694Z,4.57
2023-04-26T16:17:59.179Z,8.25
2023-04-26T16:23:04.053Z,5.43
2023-04-26T16:28:10.023Z,4.55
2023-04-26T16:33:14.390Z,5.82
2023-04-26T16:38:19.566Z,7.57
2023-04-26T16:43:23.011Z,4.53
2023-04-26T16:48:26.545Z,5.65
2023-04-26T16:53:31.868Z,3.58
2023-04-26T16:58:35.536Z,2.80
2023-04-26T17:03:39.455Z,3.03
2023-04-26T17:08:44.931Z,7.55
2023-04-26T17:13:48.647Z,3.88
2023-04-26T17:18:52.580Z,2.50
2023-04-26T17:23:57.594Z,3.85
2023-04-26T17:29:01.081Z,5.47
2023-04-26T17:34:05.133Z,7.10
2023-04-26T17:39:10.346Z,3.35
2023-04-26T17:44:13.869Z,3.65
2023-04-26T17:49:17.580Z,6.75
2023-04-26T17:54:22.658Z,5.60
2023-04-26T17:59:26.054Z,7.38
2023-04-26T18:04:30.677Z,3.63
2023-04-26T18:09:35.628Z,4.43
2023-04-26T18:14:44.697Z,7.90
2023-04-26T18:19:48.429Z,5.60
2023-04-26T18:24:53.269Z,8.05
2023-04-26T18:29:56.668Z,5.45
2023-04-26T18:35:00.757Z,6.07
2023-04-26T18:40:06.391Z,5.15
2023-04-26T18:45:10.935Z,8.40
2023-04-26T18:50:14.803Z,13.50
2023-04-26T18:55:19.892Z,7.00
2023-04-26T19:00:23.766Z,12.98
2023-04-26T19:05:27.459Z,13.40
2023-04-26T19:10:32.948Z,17.90
2023-04-26T19:15:36.594Z,9.57
2023-04-26T19:20:40.741Z,11.93
2023-04-26T19:25:46.060Z,14.10
2023-04-26T19:30:49.518Z,10.52
2023-04-26T19:35:53.148Z,9.70
2023-04-26T19:40:58.191Z,9.77
2023-04-26T19:46:01.675Z,7.90
2023-04-26T19:51:05.377Z,12.45
2023-04-26T19:56:12.046Z,11.35
2023-04-26T20:01:15.978Z,16.45
2023-04-26T20:06:19.831Z,12.57
2023-04-26T20:11:24.683Z,12.45
2023-04-26T20:16:28.669Z,13.98
2023-04-26T20:21:32.583Z,10.07
2023-04-26T20:26:37.403Z,11.48
2023-04-26T20:31:41.159Z,12.45
2023-04-26T20:36:44.898Z,8.93
2023-04-26T20:41:49.705Z,11.25
2023-04-26T20:46:53.209Z,10.20
2023-04-26T20:51:56.951Z,9.35
2023-04-26T20:57:04.168Z,12.35
2023-04-26T21:02:08.914Z,11.45
2023-04-26T21:07:13.049Z,13.75
2023-04-26T21:12:18.109Z,15.27
2023-04-26T21:17:21.880Z,17.02
2023-04-26T21:22:25.618Z,11.00
2023-04-26T21:27:31.701Z,11.77
2023-04-26T21:32:35.150Z,10.80
2023-04-26T21:37:38.693Z,13.05
2023-04-26T21:42:46.661Z,9.88
2023-04-26T21:47:55.252Z,11.80
2023-04-26T21:52:58.675Z,11.18
2023-04-26T21:58:03.422Z,14.57
2023-04-26T22:03:07.094Z,11.55
2023-04-26T22:08:10.738Z,16.95
2023-04-26T22:13:15.634Z,14.93
2023-04-26T22:18:19.337Z,12.93
2023-04-26T22:23:22.761Z,13.43
2023-04-26T22:28:28.069Z,13.43
